createdAt,value
2023-05-13T00:02:08.586Z,0.40
2023-05-13T00:04:36.574Z,0.40
2023-05-13T00:07:04.758Z,0.40
2023-05-13T00:09:34.062Z,0.40
2023-05-13T00:12:03.376Z,0.40
2023-05-13T00:14:31.964Z,0.40
2023-05-13T00:17:02.174Z,0.40
2023-05-13T00:19:30.131Z,0.30
2023-05-13T00:21:58.102Z,0.50
2023-05-13T00:24:26.088Z,0.30
2023-05-13T00:26:55.629Z,0.30
2023-05-13T00:29:23.582Z,0.40
2023-05-13T00:31:51.735Z,0.40
2023-05-13T00:34:19.936Z,0.40
2023-05-13T00:36:47.831Z,0.30
2023-05-13T00:39:15.777Z,0.50
2023-05-13T00:41:43.642Z,0.32
2023-05-13T00:44:14.470Z,0.40
2023-05-13T00:46:43.446Z,0.35
2023-05-13T00:49:11.841Z,0.40
2023-05-13T00:51:40.055Z,0.20
2023-05-13T00:54:08.141Z,0.30
2023-05-13T00:56:38.359Z,0.30
2023-05-13T00:59:06.642Z,0.43
2023-05-13T01:01:55.182Z,0.38
2023-05-13T01:04:43.595Z,0.40
2023-05-13T01:07:35.804Z,0.30
2023-05-13T01:10:12.653Z,0.32
2023-05-13T01:12:45.390Z,0.30
2023-05-13T01:15:19.774Z,0.40
2023-05-13T01:17:58.482Z,0.40
2023-05-13T01:20:29.355Z,0.40
2023-05-13T01:22:59.803Z,0.45
2023-05-13T01:25:27.941Z,0.40
2023-05-13T01:27:56.626Z,0.30
2023-05-13T01:30:24.918Z,0.30
2023-05-13T01:32:54.484Z,0.30
2023-05-13T01:35:25.239Z,0.40
2023-05-13T01:37:54.185Z,0.30
2023-05-13T01:40:31.878Z,0.30
2023-05-13T01:43:01.510Z,0.40
2023-05-13T01:45:30.140Z,0.40
2023-05-13T01:47:58.199Z,0.38
2023-05-13T01:50:26.533Z,0.38
2023-05-13T01:52:54.480Z,0.40
2023-05-13T01:55:23.818Z,0.40
2023-05-13T01:57:51.859Z,0.30
2023-05-13T02:00:20.581Z,0.40
2023-05-13T02:02:48.823Z,0.37
2023-05-13T02:05:17.324Z,0.40
2023-05-13T02:07:45.600Z,0.40
2023-05-13T02:10:13.611Z,0.30
2023-05-13T02:12:42.882Z,0.30
2023-05-13T02:15:12.175Z,0.40
2023-05-13T02:17:40.129Z,0.40
2023-05-13T02:20:10.081Z,0.32
2023-05-13T02:22:38.083Z,0.30
2023-05-13T02:25:06.896Z,0.40
2023-05-13T02:27:34.894Z,0.30
2023-05-13T02:30:04.648Z,0.40
2023-05-13T02:35:00.360Z,0.40
2023-05-13T02:37:28.280Z,0.30
2023-05-13T02:39:56.254Z,0.28
2023-05-13T02:42:24.166Z,0.30
2023-05-13T02:44:52.179Z,0.40
2023-05-13T02:47:21.459Z,0.30
2023-05-13T02:49:49.378Z,0.43
2023-05-13T02:52:17.478Z,0.30
2023-05-13T02:54:45.922Z,0.40
2023-05-13T02:57:13.793Z,0.40
2023-05-13T02:59:41.782Z,0.40
2023-05-13T03:02:09.775Z,0.40
2023-05-13T03:04:41.175Z,0.43
2023-05-13T03:07:09.859Z,0.30
2023-05-13T03:09:39.188Z,0.45
2023-05-13T03:12:08.284Z,0.45
2023-05-13T03:14:37.141Z,0.50
2023-05-13T03:17:05.640Z,0.40
2023-05-13T03:19:35.320Z,0.32
2023-05-13T03:22:04.896Z,0.50
2023-05-13T03:24:33.440Z,0.40
2023-05-13T03:27:01.910Z,0.40
2023-05-13T03:29:29.831Z,0.40
2023-05-13T03:31:57.828Z,0.40
2023-05-13T03:34:25.804Z,0.30
2023-05-13T03:36:53.883Z,0.43
2023-05-13T03:39:23.210Z,0.45
2023-05-13T03:41:51.225Z,0.50
2023-05-13T03:44:19.383Z,0.38
2023-05-13T03:46:47.514Z,0.40
2023-05-13T03:49:15.534Z,0.50
2023-05-13T03:51:43.461Z,0.40
2023-05-13T03:54:11.403Z,0.30
2023-05-13T03:56:41.187Z,0.40
2023-05-13T04:01:37.579Z,0.40
2023-05-13T04:04:06.051Z,0.40
2023-05-13T04:06:33.985Z,0.40
2023-05-13T04:09:04.534Z,0.30
2023-05-13T04:11:33.312Z,0.40
2023-05-13T04:14:02.580Z,0.50
2023-05-13T04:16:30.523Z,0.40
2023-05-13T04:18:58.699Z,0.30
2023-05-13T04:21:26.680Z,0.40
2023-05-13T04:23:54.627Z,0.40
2023-05-13T04:26:22.763Z,0.38
2023-05-13T04:28:50.881Z,0.40
2023-05-13T04:31:21.317Z,0.32
2023-05-13T04:33:49.315Z,0.32
2023-05-13T04:36:17.245Z,0.38
2023-05-13T04:38:45.122Z,0.25
2023-05-13T04:41:13.067Z,0.30
2023-05-13T04:43:40.950Z,0.30
2023-05-13T04:46:08.904Z,0.30
2023-05-13T04:48:38.204Z,0.30
2023-05-13T04:51:06.647Z,0.30
2023-05-13T04:53:35.602Z,0.30
2023-05-13T04:56:03.621Z,0.30
2023-05-13T04:58:31.531Z,0.30
2023-05-13T05:00:59.476Z,0.30
2023-05-13T05:03:27.552Z,0.30
2023-05-13T05:05:56.893Z,0.30
2023-05-13T05:08:24.911Z,0.40
2023-05-13T05:10:52.899Z,0.30
2023-05-13T05:13:20.867Z,0.40
2023-05-13T05:15:48.842Z,0.30
2023-05-13T05:18:16.938Z,0.20
2023-05-13T05:20:45.001Z,0.25
2023-05-13T05:23:14.311Z,0.28
2023-05-13T05:25:42.215Z,0.20
2023-05-13T05:28:10.146Z,0.20
2023-05-13T05:30:40.387Z,0.20
2023-05-13T05:33:09.365Z,0.25
2023-05-13T05:35:38.330Z,0.30
2023-05-13T05:38:08.498Z,0.30
2023-05-13T05:40:42.218Z,0.30
2023-05-13T05:43:10.995Z,0.30
2023-05-13T05:45:39.722Z,0.32
2023-05-13T05:48:08.566Z,0.30
2023-05-13T05:50:37.382Z,0.28
2023-05-13T05:53:06.966Z,0.20
2023-05-13T05:55:35.091Z,0.30
2023-05-13T05:58:07.213Z,0.30
2023-05-13T06:00:35.234Z,0.40
2023-05-13T06:03:03.289Z,0.30
2023-05-13T06:05:31.406Z,0.40
2023-05-13T06:07:59.438Z,0.40
2023-05-13T06:10:27.521Z,0.30
2023-05-13T06:12:55.445Z,0.20
2023-05-13T06:15:24.790Z,0.40
2023-05-13T06:17:52.888Z,0.35
2023-05-13T06:20:21.159Z,0.30
2023-05-13T06:22:49.310Z,0.40
2023-05-13T06:25:17.548Z,0.30
2023-05-13T06:27:45.487Z,0.30
2023-05-13T06:30:14.076Z,0.30
2023-05-13T06:32:53.460Z,0.30
2023-05-13T06:35:25.525Z,0.32
2023-05-13T06:37:53.479Z,0.30
2023-05-13T06:40:21.642Z,0.25
2023-05-13T06:42:49.913Z,0.30
2023-05-13T06:45:18.386Z,0.30
2023-05-13T06:47:47.686Z,0.30
2023-05-13T06:50:15.694Z,0.30
2023-05-13T06:52:43.589Z,0.20
2023-05-13T06:55:12.460Z,0.30
2023-05-13T06:57:43.369Z,0.30
2023-05-13T07:00:13.671Z,0.30
2023-05-13T07:02:41.725Z,0.30
2023-05-13T07:05:13.832Z,0.22
2023-05-13T07:07:43.148Z,0.20
2023-05-13T07:10:11.985Z,0.30
2023-05-13T07:12:40.048Z,0.30
2023-05-13T07:15:09.346Z,0.30
2023-05-13T07:17:37.499Z,0.30
2023-05-13T07:20:06.530Z,0.20
2023-05-13T07:22:36.296Z,0.37
2023-05-13T07:27:32.014Z,0.30
2023-05-13T07:29:59.988Z,0.30
2023-05-13T07:32:27.913Z,0.30
2023-05-13T07:34:55.824Z,0.30
2023-05-13T07:37:24.452Z,0.28
2023-05-13T07:39:54.264Z,0.20
2023-05-13T07:44:50.113Z,0.20
2023-05-13T07:47:18.022Z,0.30
2023-05-13T07:49:45.966Z,0.30
2023-05-13T07:52:14.249Z,0.30
2023-05-13T07:54:42.155Z,0.30
2023-05-13T07:57:11.600Z,0.20
2023-05-13T07:59:39.493Z,0.20
2023-05-13T08:02:08.378Z,0.30
2023-05-13T08:04:39.190Z,0.30
2023-05-13T08:07:07.631Z,0.20
2023-05-13T08:09:35.510Z,0.20
2023-05-13T08:12:03.490Z,0.20
2023-05-13T08:14:32.779Z,0.20
2023-05-13T08:17:00.942Z,0.20
2023-05-13T08:19:28.993Z,0.30
2023-05-13T08:21:59.685Z,0.28
2023-05-13T08:24:27.701Z,0.30
2023-05-13T08:26:55.661Z,0.20
2023-05-13T08:29:23.756Z,0.20
2023-05-13T08:31:53.728Z,0.20
2023-05-13T08:34:21.847Z,0.30
2023-05-13T08:36:49.756Z,0.20
2023-05-13T08:39:17.668Z,0.38
2023-05-13T08:41:47.367Z,0.30
2023-05-13T08:44:19.012Z,0.30
2023-05-13T08:47:03.210Z,0.30
2023-05-13T08:49:31.531Z,0.22
2023-05-13T08:51:59.631Z,0.25
2023-05-13T08:54:30.500Z,0.30
2023-05-13T08:56:58.453Z,0.20
2023-05-13T08:59:26.454Z,0.30
2023-05-13T09:01:56.468Z,0.20
2023-05-13T09:04:26.864Z,0.20
2023-05-13T09:06:55.257Z,0.20
2023-05-13T09:09:23.745Z,0.20
2023-05-13T09:11:51.761Z,0.20
2023-05-13T09:14:20.826Z,0.30
2023-05-13T09:16:49.277Z,0.30
2023-05-13T09:19:18.720Z,0.20
2023-05-13T09:21:46.999Z,0.20
2023-05-13T09:24:18.745Z,0.30
2023-05-13T09:26:48.283Z,0.20
2023-05-13T09:29:18.857Z,0.20
2023-05-13T09:31:49.794Z,0.20
2023-05-13T09:34:30.707Z,0.20
2023-05-13T09:37:04.631Z,0.20
2023-05-13T09:39:35.165Z,0.20
2023-05-13T09:42:05.121Z,0.20
2023-05-13T09:44:34.930Z,0.20
2023-05-13T09:47:03.437Z,0.20
2023-05-13T09:49:33.550Z,0.20
2023-05-13T09:52:01.506Z,0.25
2023-05-13T09:54:36.825Z,0.20
2023-05-13T09:57:05.976Z,0.10
2023-05-13T09:59:34.559Z,0.20
2023-05-13T10:02:07.038Z,0.20
2023-05-13T10:04:36.373Z,0.20
2023-05-13T10:07:07.757Z,0.20
2023-05-13T10:09:39.127Z,0.22
2023-05-13T10:12:11.403Z,0.20
2023-05-13T10:14:40.193Z,0.30
2023-05-13T10:17:09.207Z,0.20
2023-05-13T10:19:39.282Z,0.20
2023-05-13T10:22:08.541Z,0.20
2023-05-13T10:24:39.773Z,0.30
2023-05-13T10:27:09.303Z,0.20
2023-05-13T10:29:40.533Z,0.20
2023-05-13T10:32:14.021Z,0.10
2023-05-13T10:34:46.146Z,0.20
2023-05-13T10:37:55.989Z,0.20
2023-05-13T10:40:44.969Z,0.10
2023-05-13T10:43:19.364Z,0.20
2023-05-13T10:45:49.847Z,0.20
2023-05-13T10:48:19.753Z,0.20
2023-05-13T10:50:58.178Z,0.20
2023-05-13T10:53:29.593Z,0.20
2023-05-13T10:56:00.742Z,0.10
2023-05-13T10:58:33.420Z,0.22
2023-05-13T11:01:29.345Z,0.20
2023-05-13T11:04:00.528Z,0.20
2023-05-13T11:06:36.656Z,0.15
2023-05-13T11:09:07.937Z,0.25
2023-05-13T11:11:37.220Z,0.20
2023-05-13T11:14:26.729Z,0.10
2023-05-13T11:17:12.064Z,0.20
2023-05-13T11:19:47.468Z,0.30
2023-05-13T11:22:21.212Z,0.20
2023-05-13T11:25:06.612Z,0.10
2023-05-13T11:27:41.095Z,0.15
2023-05-13T11:30:23.401Z,0.20
2023-05-13T11:32:57.440Z,0.20
2023-05-13T11:35:27.652Z,0.20
2023-05-13T11:38:00.268Z,0.20
2023-05-13T11:40:32.536Z,0.20
2023-05-13T11:43:01.665Z,0.20
2023-05-13T11:45:31.139Z,0.30
2023-05-13T11:47:59.472Z,0.20
2023-05-13T11:50:30.736Z,0.20
2023-05-13T11:53:02.002Z,0.10
2023-05-13T11:55:34.052Z,0.20
2023-05-13T11:58:02.101Z,0.17
2023-05-13T12:00:32.346Z,0.25
2023-05-13T12:03:03.092Z,0.30
2023-05-13T12:05:31.290Z,0.10
2023-05-13T12:08:00.970Z,0.10
2023-05-13T12:10:29.089Z,0.20
2023-05-13T12:12:57.220Z,0.15
2023-05-13T12:15:27.080Z,0.10
2023-05-13T12:17:55.438Z,0.20
2023-05-13T12:20:24.982Z,0.20
2023-05-13T12:22:56.961Z,0.20
2023-05-13T12:25:51.303Z,0.20
2023-05-13T12:28:22.204Z,0.10
2023-05-13T12:30:53.543Z,0.15
2023-05-13T12:33:23.784Z,0.20
2023-05-13T12:35:54.535Z,0.20
2023-05-13T12:38:25.550Z,0.20
2023-05-13T12:40:55.064Z,0.20
2023-05-13T12:43:24.776Z,0.20
2023-05-13T12:48:26.384Z,0.20
2023-05-13T12:50:54.681Z,0.20
2023-05-13T12:53:22.630Z,0.10
2023-05-13T12:55:50.656Z,0.20
2023-05-13T12:58:20.234Z,0.20
2023-05-13T13:00:48.166Z,0.10
2023-05-13T13:03:16.395Z,0.30
2023-05-13T13:05:44.427Z,0.20
2023-05-13T13:08:12.325Z,0.17
2023-05-13T13:10:40.249Z,0.20
2023-05-13T13:13:08.135Z,0.20
2023-05-13T13:15:37.448Z,0.20
2023-05-13T13:18:05.715Z,0.30
2023-05-13T13:20:34.416Z,0.20
2023-05-13T13:23:02.371Z,0.15
2023-05-13T13:25:30.485Z,0.20
2023-05-13T13:27:58.377Z,0.10
2023-05-13T13:30:26.433Z,0.20
2023-05-13T13:32:55.718Z,0.20
2023-05-13T13:35:23.769Z,0.10
2023-05-13T13:37:51.896Z,0.10
2023-05-13T13:40:20.027Z,0.20
2023-05-13T13:42:48.154Z,0.20
2023-05-13T13:45:16.182Z,0.20
2023-05-13T13:47:45.057Z,0.10
2023-05-13T13:50:17.491Z,0.10
2023-05-13T13:52:45.502Z,0.20
2023-05-13T13:55:14.853Z,0.20
2023-05-13T13:57:42.826Z,0.13
2023-05-13T14:00:12.305Z,0.17
2023-05-13T14:02:40.810Z,0.20
2023-05-13T14:05:09.890Z,0.10
2023-05-13T14:07:39.287Z,0.10
2023-05-13T14:10:09.764Z,0.20
2023-05-13T14:12:38.712Z,0.20
2023-05-13T14:15:08.682Z,0.20
2023-05-13T14:17:36.806Z,0.10
2023-05-13T14:20:06.143Z,0.10
2023-05-13T14:22:34.090Z,0.10
2023-05-13T14:25:03.480Z,0.10
2023-05-13T14:27:33.952Z,0.10
2023-05-13T14:30:02.006Z,0.20
2023-05-13T14:32:29.995Z,0.10
2023-05-13T14:34:58.002Z,0.10
2023-05-13T14:37:25.904Z,0.20
2023-05-13T14:39:53.937Z,0.15
2023-05-13T14:42:23.215Z,0.10
2023-05-13T14:44:51.258Z,0.10
2023-05-13T14:47:19.261Z,0.10
2023-05-13T14:49:47.193Z,0.10
2023-05-13T14:52:15.149Z,0.10
2023-05-13T14:54:43.083Z,0.10
2023-05-13T14:57:13.233Z,0.10
2023-05-13T14:59:42.496Z,0.10
2023-05-13T15:02:10.505Z,0.10
2023-05-13T15:04:38.571Z,0.10
2023-05-13T15:07:08.237Z,0.10
2023-05-13T15:12:04.059Z,0.10
2023-05-13T15:14:32.068Z,0.20
2023-05-13T15:17:01.504Z,0.10
2023-05-13T15:19:29.653Z,0.10
2023-05-13T15:21:57.657Z,0.10
2023-05-13T15:24:25.722Z,0.10
2023-05-13T15:26:53.721Z,0.10
2023-05-13T15:29:21.672Z,0.10
2023-05-13T15:31:51.575Z,0.10
2023-05-13T15:34:20.832Z,0.10
2023-05-13T15:36:48.842Z,0.10
2023-05-13T15:39:17.146Z,0.10
2023-05-13T15:41:45.343Z,0.10
2023-05-13T15:44:13.201Z,0.10
2023-05-13T15:46:42.436Z,0.10
2023-05-13T15:49:10.370Z,0.10
2023-05-13T15:51:39.801Z,0.10
2023-05-13T15:54:07.744Z,0.20
2023-05-13T15:56:35.833Z,0.10
2023-05-13T15:59:03.770Z,0.15
2023-05-13T16:01:31.870Z,0.10
2023-05-13T16:03:59.911Z,0.10
2023-05-13T16:06:27.991Z,0.10
2023-05-13T16:08:57.275Z,0.10
2023-05-13T16:11:25.774Z,0.10
2023-05-13T16:13:53.728Z,0.10
2023-05-13T16:16:22.075Z,0.10
2023-05-13T16:18:50.441Z,0.20
2023-05-13T16:21:18.570Z,0.20
2023-05-13T16:23:46.606Z,0.10
2023-05-13T16:26:15.863Z,0.22
2023-05-13T16:28:44.122Z,0.10
2023-05-13T16:31:12.126Z,0.10
2023-05-13T16:33:40.098Z,0.20
2023-05-13T16:36:10.953Z,0.20
2023-05-13T16:38:41.217Z,0.20
2023-05-13T16:41:09.272Z,0.25
2023-05-13T16:43:38.547Z,0.20
2023-05-13T16:46:06.559Z,0.20
2023-05-13T16:48:34.541Z,0.20
2023-05-13T16:51:02.531Z,0.20
2023-05-13T16:53:30.777Z,0.25
2023-05-13T16:55:58.685Z,0.15
2023-05-13T16:58:26.912Z,0.20
2023-05-13T17:00:58.545Z,0.20
2023-05-13T17:03:27.638Z,0.20
2023-05-13T17:05:58.296Z,0.30
2023-05-13T17:08:26.381Z,0.20
2023-05-13T17:10:54.372Z,0.13
2023-05-13T17:13:22.290Z,0.20
2023-05-13T17:15:50.319Z,0.20
2023-05-13T17:18:19.594Z,0.20
2023-05-13T17:20:47.456Z,0.20
2023-05-13T17:23:17.104Z,0.20
2023-05-13T17:28:12.896Z,0.20
2023-05-13T17:30:40.749Z,0.10
2023-05-13T17:33:08.842Z,0.30
2023-05-13T17:35:38.209Z,0.20
2023-05-13T17:38:06.154Z,0.20
2023-05-13T17:40:35.117Z,0.20
2023-05-13T17:43:03.950Z,0.20
2023-05-13T17:45:31.911Z,0.20
2023-05-13T17:48:00.020Z,0.13
2023-05-13T17:50:30.062Z,0.20
2023-05-13T17:52:59.773Z,0.20
2023-05-13T17:55:27.753Z,0.20
2023-05-13T17:57:56.507Z,0.30
2023-05-13T18:00:25.242Z,0.15
2023-05-13T18:02:53.647Z,0.20
2023-05-13T18:05:22.253Z,0.20
2023-05-13T18:07:50.310Z,0.15
2023-05-13T18:10:19.883Z,0.15
2023-05-13T18:12:47.973Z,0.20
2023-05-13T18:15:16.154Z,0.20
2023-05-13T18:17:44.182Z,0.20
2023-05-13T18:20:13.683Z,0.20
2023-05-13T18:22:41.571Z,0.20
2023-05-13T18:25:11.571Z,0.22
2023-05-13T18:27:40.913Z,0.20
2023-05-13T18:30:10.411Z,0.30
2023-05-13T18:32:39.406Z,0.20
2023-05-13T18:35:08.482Z,0.20
2023-05-13T18:37:36.974Z,0.20
2023-05-13T18:40:05.925Z,0.20
2023-05-13T18:42:33.926Z,0.20
2023-05-13T18:45:03.304Z,0.20
2023-05-13T18:47:31.340Z,0.20
2023-05-13T18:49:59.192Z,0.20
2023-05-13T18:52:27.176Z,0.20
2023-05-13T18:54:55.049Z,0.20
2023-05-13T18:57:23.827Z,0.20
2023-05-13T18:59:52.223Z,0.20
2023-05-13T19:02:21.693Z,0.20
2023-05-13T19:04:49.722Z,0.25
2023-05-13T19:07:17.891Z,0.30
2023-05-13T19:09:45.839Z,0.20
2023-05-13T19:12:13.813Z,0.30
2023-05-13T19:14:41.865Z,0.20
2023-05-13T19:17:10.101Z,0.20
2023-05-13T19:19:39.558Z,0.20
2023-05-13T19:22:07.583Z,0.30
2023-05-13T19:24:35.461Z,0.30
2023-05-13T19:27:03.571Z,0.22
2023-05-13T19:29:31.532Z,0.20
2023-05-13T19:31:59.431Z,0.22
2023-05-13T19:34:27.366Z,0.15
2023-05-13T19:36:56.838Z,0.20
2023-05-13T19:39:24.782Z,0.30
2023-05-13T19:41:52.651Z,0.30
2023-05-13T19:44:20.581Z,0.20
2023-05-13T19:46:48.545Z,0.20
2023-05-13T19:49:16.535Z,0.20
2023-05-13T19:51:44.397Z,0.25
2023-05-13T19:54:14.019Z,0.30
2023-05-13T19:56:42.462Z,0.30
2023-05-13T19:59:10.546Z,0.32
2023-05-13T20:01:38.733Z,0.30
2023-05-13T20:04:06.866Z,0.20
2023-05-13T20:06:35.100Z,0.30
2023-05-13T20:09:03.063Z,0.28
2023-05-13T20:11:32.854Z,0.30
2023-05-13T20:16:28.793Z,0.30
2023-05-13T20:18:56.720Z,0.20
2023-05-13T20:21:24.678Z,0.20
2023-05-13T20:23:52.617Z,0.30
2023-05-13T20:26:20.486Z,0.30
2023-05-13T20:28:51.831Z,0.30
2023-05-13T20:31:19.767Z,0.20
2023-05-13T20:33:47.690Z,0.20
2023-05-13T20:36:15.684Z,0.30
2023-05-13T20:38:43.617Z,0.25
2023-05-13T20:41:11.561Z,0.30
2023-05-13T20:43:39.453Z,0.30
2023-05-13T20:46:09.879Z,0.25
2023-05-13T20:48:37.865Z,0.38
2023-05-13T20:51:07.134Z,0.20
2023-05-13T20:53:36.415Z,0.30
2023-05-13T20:56:05.299Z,0.20
2023-05-13T20:58:33.376Z,0.33
2023-05-13T21:01:01.280Z,0.20
2023-05-13T21:03:30.772Z,0.40
2023-05-13T21:05:58.717Z,0.30
2023-05-13T21:08:26.674Z,0.30
2023-05-13T21:10:56.209Z,0.22
2023-05-13T21:13:25.893Z,0.28
2023-05-13T21:15:53.915Z,0.30
2023-05-13T21:18:22.280Z,0.30
2023-05-13T21:20:52.925Z,0.30
2023-05-13T21:23:20.906Z,0.30
2023-05-13T21:25:48.775Z,0.25
2023-05-13T21:28:17.694Z,0.30
2023-05-13T21:30:45.815Z,0.30
2023-05-13T21:33:13.802Z,0.32
2023-05-13T21:35:41.711Z,0.30
2023-05-13T21:38:12.271Z,0.30
2023-05-13T21:40:40.653Z,0.30
2023-05-13T21:43:08.608Z,0.38
2023-05-13T21:45:36.638Z,0.20
2023-05-13T21:48:05.050Z,0.30
2023-05-13T21:50:33.061Z,0.20
2023-05-13T21:53:00.973Z,0.30
2023-05-13T21:55:34.623Z,0.40
2023-05-13T21:58:02.741Z,0.40
2023-05-13T22:00:31.562Z,0.30
2023-05-13T22:03:00.519Z,0.30
2023-05-13T22:05:28.886Z,0.35
2023-05-13T22:07:56.838Z,0.30
2023-05-13T22:10:25.102Z,0.30
2023-05-13T22:12:54.598Z,0.30
2023-05-13T22:15:22.526Z,0.35
2023-05-13T22:17:50.961Z,0.40
2023-05-13T22:20:19.178Z,0.40
2023-05-13T22:22:47.368Z,0.30
2023-05-13T22:25:15.470Z,0.35
2023-05-13T22:27:43.351Z,0.40
2023-05-13T22:30:13.382Z,0.30
2023-05-13T22:32:41.457Z,0.30
2023-05-13T22:35:10.625Z,0.40
2023-05-13T22:37:38.576Z,0.50
2023-05-13T22:40:08.493Z,0.30
2023-05-13T22:42:36.403Z,0.40
2023-05-13T22:45:04.733Z,0.30
2023-05-13T22:47:34.037Z,0.35
2023-05-13T22:50:01.932Z,0.40
2023-05-13T22:52:29.917Z,0.40
2023-05-13T22:54:57.828Z,0.30
2023-05-13T22:57:26.486Z,0.30
2023-05-13T22:59:54.495Z,0.32
2023-05-13T23:02:23.294Z,0.30
2023-05-13T23:04:53.615Z,0.30
2023-05-13T23:07:21.534Z,0.30
2023-05-13T23:09:49.490Z,0.30
2023-05-13T23:12:17.397Z,0.40
2023-05-13T23:14:45.259Z,0.40
2023-05-13T23:17:13.192Z,0.40
2023-05-13T23:19:41.090Z,0.30
2023-05-13T23:22:10.428Z,0.30
2023-05-13T23:24:38.354Z,0.35
2023-05-13T23:27:07.030Z,0.30
2023-05-13T23:29:34.895Z,0.30
2023-05-13T23:32:05.076Z,0.30
2023-05-13T23:34:34.601Z,0.30
2023-05-13T23:37:02.578Z,0.30
2023-05-13T23:39:31.874Z,0.30
2023-05-13T23:41:59.835Z,0.40
2023-05-13T23:44:27.718Z,0.40
2023-05-13T23:46:55.605Z,0.30
2023-05-13T23:49:23.576Z,0.35
2023-05-13T23:51:51.604Z,0.32
2023-05-13T23:54:19.591Z,0.30
2023-05-13T23:56:48.893Z,0.35
2023-05-13T23:59:16.830Z,0.45
